Time;durP1;ratioP1;P1;durP2;ratioP2;P2;SDS_P1;SDS_P2;PMS_P1;PMS_P2;Temp;Humidity;BMP_temperature;BMP_pressure;BME280_temperature;BME280_humidity;BME280_pressure;Samples;Min_cycle;Max_cycle;Signal;HPM_P1;HPM_P2
2022/07/16 00:01:25;;;;;;;7.80;4.97;;;;;;;13.42;76.03;102013.66;5136497;27;20032;-45
2022/07/16 00:03:56;;;;;;;9.15;5.18;;;;;;;13.32;76.26;102016.69;5137217;27;20031;-45
2022/07/16 00:06:22;;;;;;;13.65;5.20;;;;;;;13.27;76.56;102008.78;5136876;27;20023;-43
2022/07/16 00:08:48;;;;;;;10.55;5.63;;;;;;;13.22;76.73;102012.00;5135978;27;20039;-43
2022/07/16 00:11:13;;;;;;;12.02;5.90;;;;;;;13.17;77.40;102006.66;5136760;27;20023;-44
2022/07/16 00:13:39;;;;;;;11.80;6.65;;;;;;;13.13;77.59;102008.25;5136446;27;20054;-43
2022/07/16 00:16:06;;;;;;;11.48;6.93;;;;;;;13.04;77.78;102009.59;5136864;27;20019;-44
2022/07/16 00:21:15;;;;;;;12.55;6.55;;;;;;;12.93;78.14;102011.78;5136352;27;20496;-43
2022/07/16 00:23:40;;;;;;;10.30;5.95;;;;;;;12.92;78.34;102010.00;5136773;27;20106;-43
2022/07/16 00:26:05;;;;;;;13.52;6.47;;;;;;;12.95;78.31;102015.28;5136586;27;20019;-44
2022/07/16 00:28:31;;;;;;;13.35;6.38;;;;;;;12.87;78.62;102016.72;5136006;27;20035;-44
2022/07/16 00:30:56;;;;;;;17.15;7.13;;;;;;;12.93;78.88;102004.88;5136660;27;20394;-44
2022/07/16 00:33:21;;;;;;;28.75;16.02;;;;;;;13.04;78.11;102010.50;5136523;27;20127;-45
2022/07/16 00:35:46;;;;;;;44.25;22.33;;;;;;;13.10;79.06;102013.28;5135826;27;20121;-43
2022/07/16 00:38:12;;;;;;;102.20;50.40;;;;;;;13.33;77.43;102016.75;5136132;27;20114;-44
2022/07/16 00:40:38;;;;;;;30.55;17.55;;;;;;;13.57;76.13;102012.44;5136697;27;20031;-44
2022/07/16 00:43:03;;;;;;;13.38;8.30;;;;;;;13.69;75.39;102007.72;5135624;27;20030;-43
2022/07/16 00:45:29;;;;;;;19.85;7.53;;;;;;;13.83;74.71;102016.84;5136525;27;20015;-43
2022/07/16 00:47:54;;;;;;;14.80;8.02;;;;;;;13.97;74.13;102014.72;5136091;27;20023;-44
2022/07/16 00:50:19;;;;;;;14.57;7.28;;;;;;;14.09;73.76;102016.00;5135297;27;20045;-43
2022/07/16 00:52:45;;;;;;;15.35;7.07;;;;;;;14.14;73.10;102007.53;5136245;27;20227;-44
2022/07/16 00:55:10;;;;;;;18.05;7.18;;;;;;;14.22;72.81;102009.50;5135832;27;20370;-45
2022/07/16 00:57:36;;;;;;;16.00;7.78;;;;;;;14.29;72.33;102008.84;5135526;27;20098;-47
2022/07/16 01:00:04;;;;;;;15.95;9.75;;;;;;;14.36;72.28;102008.25;5136065;27;20026;-45
2022/07/16 01:02:29;;;;;;;;;;;;;;;14.43;71.46;102010.19;5136534;27;20027;-43
2022/07/16 01:04:54;;;;;;;19.50;10.38;;;;;;;14.46;71.54;102002.53;5135120;27;19907;-44
2022/07/16 01:07:22;;;;;;;14.80;8.35;;;;;;;14.49;71.44;102002.59;5135429;27;20382;-43
2022/07/16 01:09:47;;;;;;;15.68;7.10;;;;;;;14.52;71.07;101998.34;5135198;27;20027;-44
2022/07/16 01:12:13;;;;;;;15.20;7.43;;;;;;;14.53;70.92;101995.81;5135697;27;20034;-44
2022/07/16 01:14:39;;;;;;;17.33;8.98;;;;;;;14.55;70.87;102003.63;5135920;27;20019;-44
2022/07/16 01:17:04;;;;;;;18.55;9.88;;;;;;;14.58;70.60;101998.56;5134586;27;20351;-44
2022/07/16 01:19:30;;;;;;;14.68;8.05;;;;;;;14.56;70.57;101995.91;5135641;27;20481;-46
2022/07/16 01:21:55;;;;;;;15.45;9.90;;;;;;;14.53;70.56;101990.63;5135475;27;20015;-43
2022/07/16 01:24:20;;;;;;;14.60;8.23;;;;;;;14.48;70.66;101985.28;5134906;27;20076;-44
2022/07/16 01:26:46;;;;;;;11.93;7.15;;;;;;;14.49;70.90;101993.94;5135510;27;20072;-44
2022/07/16 01:29:11;;;;;;;12.75;8.20;;;;;;;14.48;70.67;101987.88;5135296;27;20405;-44
2022/07/16 01:31:36;;;;;;;15.73;8.52;;;;;;;14.51;70.80;101988.81;5134959;27;20035;-44
2022/07/16 01:34:34;;;;;;;19.27;12.10;;;;;;;14.46;71.41;101997.34;5135366;27;20026;-44
2022/07/16 01:37:07;;;;;;;24.30;13.27;;;;;;;14.43;71.05;102005.00;5130244;27;20095;-44
2022/07/16 01:39:36;;;;;;;16.65;9.80;;;;;;;14.43;70.82;101999.81;5134738;27;20028;-48
2022/07/16 01:42:04;;;;;;;11.60;7.25;;;;;;;14.36;71.30;102008.25;5135191;27;20023;-46
2022/07/16 01:44:30;;;;;;;;;;;;;;;14.49;70.24;101997.41;5135616;27;20034;-43
2022/07/16 01:46:56;;;;;;;13.32;7.93;;;;;;;14.49;70.48;101993.94;5134271;27;19911;-48
2022/07/16 01:49:22;;;;;;;53.53;27.95;;;;;;;14.55;70.29;101998.44;5134966;27;20045;-44
2022/07/16 01:51:48;;;;;;;23.83;14.05;;;;;;;14.55;70.26;101995.84;5135147;27;20526;-43
2022/07/16 01:54:13;;;;;;;28.98;16.90;;;;;;;14.57;70.16;101996.78;5134138;27;20031;-48
2022/07/16 01:56:38;;;;;;;32.50;16.38;;;;;;;14.53;70.65;102006.19;5135011;27;20023;-45
2022/07/16 01:59:04;;;;;;;27.98;17.38;;;;;;;14.57;70.41;101996.78;5133911;27;20019;-43
2022/07/16 02:01:29;;;;;;;19.33;10.07;;;;;;;14.58;70.47;101998.56;5134852;27;20078;-44
2022/07/16 02:03:54;;;;;;;15.85;8.10;;;;;;;14.56;70.38;101995.03;5134618;27;20030;-43
2022/07/16 02:06:20;;;;;;;17.48;8.20;;;;;;;14.55;70.29;101998.44;5134064;27;20521;-43
2022/07/16 02:08:46;;;;;;;16.85;8.00;;;;;;;14.54;70.55;101991.50;5134578;27;20082;-44
2022/07/16 02:11:11;;;;;;;18.65;7.68;;;;;;;14.55;70.85;101990.66;5134471;27;20359;-44
2022/07/16 02:13:36;;;;;;;13.70;7.70;;;;;;;14.53;70.35;101988.03;5133926;27;20023;-45
2022/07/16 02:16:02;;;;;;;15.25;7.68;;;;;;;14.59;70.23;101992.50;5134364;27;20019;-46
2022/07/16 02:18:27;;;;;;;12.00;7.78;;;;;;;14.63;69.56;101990.06;5134418;27;20085;-44
2022/07/16 02:20:53;;;;;;;11.68;7.93;;;;;;;14.68;69.68;101984.19;5133851;27;20023;-44
2022/07/16 02:23:18;;;;;;;15.65;7.40;;;;;;;14.72;69.29;101984.34;5134408;27;20136;-44
2022/07/16 02:25:44;;;;;;;13.48;8.13;;;;;;;14.76;68.85;101983.59;5134534;27;20051;-44
2022/07/16 02:28:10;;;;;;;16.73;8.30;;;;;;;14.79;68.75;101986.25;5133363;27;20038;-45
2022/07/16 02:30:44;;;;;;;14.77;8.70;;;;;;;14.81;68.47;101982.00;5134338;27;20027;-43
2022/07/16 02:33:11;;;;;;;16.98;9.07;;;;;;;14.84;68.52;101981.22;5134367;27;20031;-45
2022/07/16 02:35:37;;;;;;;14.98;8.68;;;;;;;14.85;68.26;101983.00;5133730;27;20023;-45
2022/07/16 02:38:03;;;;;;;14.27;9.43;;;;;;;14.92;67.88;101978.84;5134066;27;20031;-43
2022/07/16 02:40:29;;;;;;;14.15;9.35;;;;;;;14.90;67.44;101984.00;5134278;27;20102;-43
2022/07/16 02:42:55;;;;;;;19.27;9.20;;;;;;;14.92;67.47;101984.03;5133422;27;20094;-44
2022/07/16 02:45:21;;;;;;;22.90;11.18;;;;;;;14.87;67.52;101983.03;5133940;27;20031;-46
2022/07/16 02:47:46;;;;;;;19.92;10.57;;;;;;;14.86;67.70;101986.44;5133987;27;20446;-45
2022/07/16 02:50:12;;;;;;;17.77;10.00;;;;;;;14.90;67.56;101983.09;5133273;27;20481;-47
2022/07/16 02:52:37;;;;;;;15.55;10.35;;;;;;;14.87;67.61;101985.63;5134012;27;20424;-43
2022/07/16 02:55:04;;;;;;;20.23;10.15;;;;;;;14.89;67.65;101983.97;5133795;27;20054;-44
2022/07/16 02:57:29;;;;;;;18.27;9.88;;;;;;;14.89;67.56;101983.97;5133331;27;20027;-45
2022/07/16 02:59:54;;;;;;;16.52;10.00;;;;;;;14.90;67.59;101985.72;5133815;27;20023;-45
2022/07/16 03:02:20;;;;;;;16.15;10.23;;;;;;;14.86;67.76;101979.56;5133006;27;20027;-43
2022/07/16 03:04:45;;;;;;;17.35;9.55;;;;;;;14.88;67.57;101983.06;5134037;27;20039;-44
2022/07/16 03:07:10;;;;;;;14.27;9.65;;;;;;;14.85;67.43;101982.09;5133696;27;20027;-43
2022/07/16 03:09:36;;;;;;;16.45;9.27;;;;;;;14.89;67.79;101984.84;5132780;28;20043;-43
2022/07/16 03:12:01;;;;;;;16.58;10.13;;;;;;;14.88;67.82;101979.59;5133820;28;20072;-43
2022/07/16 03:14:26;;;;;;;14.77;9.90;;;;;;;14.89;67.99;101989.16;5133578;28;20023;-44
2022/07/16 03:16:52;;;;;;;15.40;9.57;;;;;;;14.88;68.08;101987.41;5133113;28;20072;-44
2022/07/16 03:19:17;;;;;;;19.75;9.55;;;;;;;14.88;67.93;101987.41;5133710;28;20428;-43
2022/07/16 03:21:42;;;;;;;19.75;10.45;;;;;;;14.88;67.96;101984.78;5133750;28;20366;-44
2022/07/16 03:24:08;;;;;;;15.20;9.27;;;;;;;14.80;68.33;101990.63;5132772;28;20071;-43
2022/07/16 03:26:33;;;;;;;15.02;9.20;;;;;;;14.80;68.83;101990.63;5133641;28;20015;-44
2022/07/16 03:28:58;;;;;;;15.80;9.30;;;;;;;14.81;68.36;101991.53;5133331;27;20035;-45
2022/07/16 03:31:24;;;;;;;18.60;9.75;;;;;;;14.79;68.66;101996.63;5136378;27;20015;-43
2022/07/16 03:33:49;;;;;;;17.80;9.40;;;;;;;14.78;68.62;101997.50;5137853;27;20055;-45
2022/07/16 03:36:14;;;;;;;13.82;9.43;;;;;;;14.74;68.66;102000.81;5137716;27;20030;-43
2022/07/16 03:41:23;;;;;;;17.42;9.13;;;;;;;14.72;69.62;102005.09;5137810;27;20033;-44
2022/07/16 03:43:48;;;;;;;16.20;9.45;;;;;;;14.75;69.32;102012.97;5137336;27;20019;-44
2022/07/16 03:46:14;;;;;;;19.10;9.57;;;;;;;14.77;69.43;102011.31;5136790;27;20023;-43
2022/07/16 03:48:41;;;;;;;14.25;9.27;;;;;;;14.75;69.68;102012.97;5137522;27;20027;-43
2022/07/16 03:51:06;;;;;;;13.30;9.13;;;;;;;14.76;69.93;102009.53;5137118;27;20488;-44
2022/07/16 03:53:33;;;;;;;15.10;9.48;;;;;;;14.76;70.27;102011.25;5136542;27;20027;-45
2022/07/16 03:55:58;;;;;;;22.67;11.20;;;;;;;14.78;70.49;102018.25;5137202;27;20023;-44
2022/07/16 03:58:23;;;;;;;15.70;9.65;;;;;;;14.79;70.71;102025.19;5137351;27;20045;-43
2022/07/16 04:00:49;;;;;;;18.02;10.02;;;;;;;14.79;71.05;102029.50;5136385;27;20385;-44
2022/07/16 04:03:14;;;;;;;16.17;10.02;;;;;;;14.72;71.42;102025.84;5137273;27;20463;-45
2022/07/16 04:05:39;;;;;;;15.60;9.35;;;;;;;14.77;71.60;102034.66;5136396;27;20058;-43
2022/07/16 04:08:04;;;;;;;17.30;10.52;;;;;;;14.72;71.99;102033.63;5136657;27;20379;-43
2022/07/16 04:10:30;;;;;;;16.38;10.68;;;;;;;14.72;72.25;102032.72;5137001;27;20023;-43
2022/07/16 04:12:55;;;;;;;17.48;9.85;;;;;;;14.64;73.76;102037.69;5136291;27;20023;-43
2022/07/16 04:15:20;;;;;;;15.10;9.88;;;;;;;14.55;74.48;102037.34;5136960;27;20355;-44
2022/07/16 04:17:46;;;;;;;17.38;10.38;;;;;;;14.58;74.52;102037.47;5136877;27;20037;-44
2022/07/16 04:20:11;;;;;;;16.90;10.60;;;;;;;14.55;74.91;102039.94;5136001;27;20027;-44
2022/07/16 04:22:37;;;;;;;16.42;10.63;;;;;;;14.47;75.81;102043.19;5136845;27;20027;-45
2022/07/16 04:25:03;;;;;;;19.05;11.23;;;;;;;14.49;76.62;102046.69;5136753;27;20530;-43
2022/07/16 04:27:28;;;;;;;19.80;10.13;;;;;;;14.48;77.32;102047.53;5135911;27;20034;-43
2022/07/16 04:29:53;;;;;;;18.38;10.27;;;;;;;14.42;78.18;102049.03;5136738;27;20362;-43
2022/07/16 04:32:18;;;;;;;16.83;10.32;;;;;;;14.42;78.87;102054.22;5136544;27;20027;-44
2022/07/16 04:34:44;;;;;;;19.40;11.10;;;;;;;14.37;79.44;102056.69;5136057;27;20031;-43
2022/07/16 04:37:09;;;;;;;18.58;10.43;;;;;;;14.44;80.34;102052.59;5136369;27;20019;-43
2022/07/16 04:39:34;;;;;;;17.42;9.90;;;;;;;14.44;80.52;102050.84;5136446;27;20177;-43
2022/07/16 04:42:00;;;;;;;17.48;10.02;;;;;;;14.41;81.15;102053.38;5135067;27;20027;-43
2022/07/16 04:44:25;;;;;;;18.85;10.02;;;;;;;14.39;81.65;102060.19;5136474;27;20023;-44
2022/07/16 04:46:50;;;;;;;18.67;10.13;;;;;;;14.31;82.49;102056.47;5136382;27;20378;-44
2022/07/16 04:49:16;;;;;;;18.08;10.35;;;;;;;14.27;83.13;102060.69;5135616;27;20027;-43
2022/07/16 04:51:42;;;;;;;21.35;10.82;;;;;;;14.30;83.43;102055.56;5136406;27;20058;-43
2022/07/16 04:54:07;;;;;;;20.05;10.43;;;;;;;14.25;84.12;102064.03;5136102;27;20054;-43
2022/07/16 04:56:32;;;;;;;23.45;11.00;;;;;;;14.24;84.58;102065.78;5135301;27;20048;-43
2022/07/16 04:58:57;;;;;;;20.35;10.98;;;;;;;14.26;85.00;102068.41;5136264;27;20031;-44
2022/07/16 05:01:23;;;;;;;16.70;9.77;;;;;;;14.34;85.16;102069.53;5135886;27;20019;-43
2022/07/16 05:03:48;;;;;;;19.85;10.65;;;;;;;14.32;85.74;102073.81;5135326;27;20035;-43
2022/07/16 05:06:13;;;;;;;21.30;10.43;;;;;;;14.41;86.56;102079.31;5135804;27;20023;-45
2022/07/16 05:08:39;;;;;;;17.35;10.98;;;;;;;14.45;87.56;102075.97;5135798;27;20054;-44
2022/07/16 05:11:04;;;;;;;18.27;10.15;;;;;;;14.53;88.18;102080.53;5134877;27;20493;-43
2022/07/16 05:13:29;;;;;;;23.05;10.85;;;;;;;14.62;89.02;102073.94;5136080;27;20033;-44
2022/07/16 05:15:55;;;;;;;21.75;9.80;;;;;;;14.68;89.70;102081.09;5135597;27;20028;-43
2022/07/16 05:18:20;;;;;;;15.13;9.63;;;;;;;14.76;90.09;102084.78;5135231;27;20116;-43
2022/07/16 05:20:45;;;;;;;20.05;10.75;;;;;;;14.83;90.75;102083.28;5135831;27;20026;-47
2022/07/16 05:23:10;;;;;;;22.52;10.13;;;;;;;14.92;91.12;102082.69;5134750;27;20055;-44
2022/07/16 05:25:36;;;;;;;22.48;10.20;;;;;;;15.01;91.41;102088.16;5135571;27;20068;-44
2022/07/16 05:28:01;;;;;;;16.63;9.55;;;;;;;15.10;91.90;102087.56;5135621;27;20373;-43
2022/07/16 05:30:26;;;;;;;18.00;9.32;;;;;;;15.20;92.09;102094.81;5134969;27;20042;-45
2022/07/16 05:32:53;;;;;;;36.05;10.13;;;;;;;15.30;92.28;102094.25;5135469;27;20011;-43
2022/07/16 05:35:18;;;;;;;17.75;9.85;;;;;;;15.40;92.12;102098.03;5135298;27;20034;-44
2022/07/16 05:37:43;;;;;;;22.33;8.32;;;;;;;15.48;92.02;102093.91;5134810;27;20015;-44
2022/07/16 05:40:10;;;;;;;21.45;8.63;;;;;;;15.56;91.97;102101.06;5134958;27;20046;-43
2022/07/16 05:42:37;;;;;;;12.03;7.53;;;;;;;15.61;90.70;102099.47;5135508;27;20079;-44
2022/07/16 05:45:04;;;;;;;13.23;7.20;;;;;;;15.66;89.58;102094.41;5134502;27;20019;-44
2022/07/16 05:47:32;;;;;;;13.02;6.70;;;;;;;15.69;89.11;102100.56;5135319;27;20023;-46
2022/07/16 05:49:57;;;;;;;13.95;6.90;;;;;;;15.72;89.18;102098.06;5135009;27;20034;-43
2022/07/16 05:52:22;;;;;;;17.83;6.50;;;;;;;15.74;88.39;102098.13;5133293;27;20023;-44
2022/07/16 05:54:48;;;;;;;10.85;5.72;;;;;;;15.78;87.65;102102.56;5134776;27;20027;-44
2022/07/16 05:57:13;;;;;;;10.80;5.95;;;;;;;15.82;86.49;102106.16;5134981;27;20019;-44
2022/07/16 05:59:38;;;;;;;17.33;5.68;;;;;;;15.84;86.55;102099.28;5134135;27;20031;-45
2022/07/16 06:02:03;;;;;;;22.35;6.15;;;;;;;15.86;87.21;102103.69;5134679;27;20225;-48
2022/07/16 06:04:29;;;;;;;11.82;5.18;;;;;;;15.90;85.62;102112.44;5134844;27;20030;-44
2022/07/16 06:06:55;;;;;;;11.30;5.07;;;;;;;15.89;85.73;102108.94;5133911;27;20027;-46
2022/07/16 06:09:20;;;;;;;17.48;5.47;;;;;;;15.96;85.80;102110.91;5134214;27;20051;-47
2022/07/16 06:11:46;;;;;;;10.45;5.20;;;;;;;16.03;85.54;102122.34;5134914;27;20029;-48
2022/07/16 06:14:11;;;;;;;17.85;5.00;;;;;;;16.16;86.38;102123.56;5133585;27;20023;-48
2022/07/16 06:16:40;;;;;;;13.75;5.15;;;;;;;16.23;85.54;102135.00;5134649;27;20019;-45
2022/07/16 06:19:05;;;;;;;11.95;4.82;;;;;;;16.34;84.96;102132.69;5134242;27;20400;-43
2022/07/16 06:21:30;;;;;;;13.98;3.88;;;;;;;16.40;84.09;102138.06;5133774;27;20031;-43
2022/07/16 06:23:55;;;;;;;9.15;3.90;;;;;;;16.41;82.33;102138.09;5134279;27;20023;-45
2022/07/16 06:26:21;;;;;;;11.93;3.97;;;;;;;16.47;81.67;102139.97;5133364;27;20386;-43
2022/07/16 06:28:46;;;;;;;10.50;3.45;;;;;;;16.50;81.13;102142.69;5134386;27;20023;-44
2022/07/16 06:31:11;;;;;;;9.85;3.60;;;;;;;16.46;80.40;102149.50;5134030;27;20111;-44
2022/07/16 06:33:37;;;;;;;14.52;4.10;;;;;;;16.49;80.45;102147.81;5133677;27;20517;-44
2022/07/16 06:36:03;;;;;;;11.30;4.15;;;;;;;16.54;79.48;102151.41;5133963;27;20110;-44
2022/07/16 06:38:28;;;;;;;10.85;3.97;;;;;;;16.56;78.90;102154.94;5134064;27;20028;-44
2022/07/16 06:40:54;;;;;;;11.80;3.95;;;;;;;16.55;79.40;102159.28;5133375;27;20515;-44
2022/07/16 06:43:19;;;;;;;9.23;3.60;;;;;;;16.57;77.80;102159.31;5134050;27;20023;-44
2022/07/16 06:45:45;;;;;;;8.68;3.60;;;;;;;16.66;79.04;102162.16;5134175;27;20020;-44
2022/07/16 06:48:11;;;;;;;11.27;3.78;;;;;;;16.71;77.95;102167.50;5132836;27;20027;-44
2022/07/16 06:50:36;;;;;;;10.00;3.50;;;;;;;16.82;77.66;102162.53;5134166;27;20469;-44
2022/07/16 06:53:01;;;;;;;8.52;3.35;;;;;;;16.90;76.90;102167.13;5133826;27;20151;-44
2022/07/16 06:55:26;;;;;;;9.07;3.15;;;;;;;17.01;75.41;102170.00;5132949;27;20023;-43
2022/07/16 06:57:52;;;;;;;11.68;3.30;;;;;;;17.04;71.98;102170.09;5133955;27;20044;-44
2022/07/16 07:00:17;;;;;;;7.97;3.08;;;;;;;17.04;72.28;102177.91;5133754;27;20023;-43
2022/07/16 07:02:42;;;;;;;7.13;2.72;;;;;;;16.99;70.71;102176.91;5133089;27;20027;-44
2022/07/16 07:05:08;;;;;;;6.05;2.55;;;;;;;17.08;73.56;102182.34;5133406;27;20049;-43
2022/07/16 07:07:33;;;;;;;9.27;2.65;;;;;;;17.15;72.33;102198.13;5133504;27;20034;-43
2022/07/16 07:09:59;;;;;;;12.45;2.67;;;;;;;17.21;70.74;102187.81;5132586;28;20047;-45
2022/07/16 07:12:24;;;;;;;11.65;2.67;;;;;;;17.27;68.17;102190.56;5133681;28;20023;-44
2022/07/16 07:14:50;;;;;;;5.90;2.20;;;;;;;17.26;65.49;102196.63;5133609;28;20023;-43
2022/07/16 07:17:15;;;;;;;9.80;2.22;;;;;;;17.30;65.81;102208.91;5132789;28;20072;-45
2022/07/16 07:19:40;;;;;;;6.03;1.90;;;;;;;17.32;64.46;102207.19;5133759;28;20088;-44
2022/07/16 07:22:06;;;;;;;6.95;2.25;;;;;;;17.37;66.04;102207.31;5133389;28;20034;-44
2022/07/16 07:24:31;;;;;;;7.63;2.60;;;;;;;17.42;64.72;102209.16;5132771;28;20374;-44
2022/07/16 07:26:56;;;;;;;7.75;2.28;;;;;;;17.42;64.37;102214.38;5133408;28;20027;-48
2022/07/16 07:29:21;;;;;;;7.57;2.20;;;;;;;17.34;65.98;102215.94;5133331;28;20035;-45
2022/07/16 07:31:47;;;;;;;8.32;2.47;;;;;;;17.32;66.30;102212.41;5132937;28;20026;-43
2022/07/16 07:34:12;;;;;;;6.28;1.90;;;;;;;17.43;66.17;102210.06;5133355;28;20015;-43
2022/07/16 07:36:37;;;;;;;6.38;2.10;;;;;;;17.52;65.97;102217.19;5132774;28;20031;-43
2022/07/16 07:39:03;;;;;;;10.57;2.25;;;;;;;17.59;65.42;102219.97;5133118;28;20028;-44
2022/07/16 07:41:28;;;;;;;4.68;2.20;;;;;;;17.65;66.69;102221.84;5133600;28;20023;-43
2022/07/16 07:43:53;;;;;;;8.55;2.30;;;;;;;17.55;64.95;102219.88;5132642;28;20027;-45
2022/07/16 07:46:20;;;;;;;5.38;2.20;;;;;;;17.53;64.40;102232.88;5133263;28;20543;-43
2022/07/16 07:48:45;;;;;;;5.90;2.42;;;;;;;17.61;64.84;102227.81;5133412;28;20072;-46
2022/07/16 07:51:10;;;;;;;7.00;2.33;;;;;;;17.67;63.80;102225.34;5132182;28;20027;-42
2022/07/16 07:53:36;;;;;;;6.43;2.13;;;;;;;17.80;65.24;102228.25;5133314;28;20023;-43
2022/07/16 07:56:02;;;;;;;8.63;2.75;;;;;;;17.85;64.07;102229.22;5133479;28;20106;-44
2022/07/16 07:58:27;;;;;;;8.40;2.13;;;;;;;17.84;62.96;102228.31;5132373;28;20054;-44
2022/07/16 08:00:54;;;;;;;5.65;2.20;;;;;;;17.87;64.06;102238.84;5133260;28;20072;-40
2022/07/16 08:03:23;;;;;;;10.13;2.53;;;;;;;17.90;64.61;102238.03;5133212;28;20114;-42
2022/07/16 08:05:48;;;;;;;9.30;2.50;;;;;;;17.99;65.21;102240.00;5132424;28;20023;-42
2022/07/16 08:08:14;;;;;;;8.75;2.60;;;;;;;18.08;64.53;102234.97;5132791;28;20043;-42
2022/07/16 08:10:39;;;;;;;5.00;2.40;;;;;;;18.20;64.24;102243.03;5133220;28;20027;-44
2022/07/16 08:13:05;;;;;;;7.55;2.00;;;;;;;18.22;61.69;102243.94;5132362;28;20550;-42
2022/07/16 08:15:30;;;;;;;9.50;2.83;;;;;;;18.24;63.05;102247.47;5133691;27;20046;-42
2022/07/16 08:17:56;;;;;;;10.48;2.53;;;;;;;18.25;61.78;102243.13;5136753;27;20050;-43
2022/07/16 08:20:21;;;;;;;6.72;2.22;;;;;;;18.25;60.82;102256.19;5136029;27;20450;-43
2022/07/16 08:22:47;;;;;;;11.27;2.50;;;;;;;18.32;63.50;102258.06;5136786;27;20011;-42
2022/07/16 08:27:56;;;;;;;9.60;2.47;;;;;;;18.49;61.33;102266.22;5136219;27;20095;-43
2022/07/16 08:30:22;;;;;;;5.53;2.25;;;;;;;18.65;60.45;102262.16;5136593;27;20462;-42
2022/07/16 08:32:47;;;;;;;5.32;2.30;;;;;;;18.76;59.93;102265.88;5136572;27;20019;-42
2022/07/16 08:35:13;;;;;;;14.73;2.90;;;;;;;19.04;60.18;102274.25;5135500;27;20487;-42
2022/07/16 08:37:40;;;;;;;7.07;2.33;;;;;;;19.21;59.17;102278.84;5136783;27;20463;-47
2022/07/16 08:40:10;;;;;;;6.05;2.40;;;;;;;19.38;60.20;102273.88;5135635;27;20042;-43
2022/07/16 08:42:37;;;;;;;5.50;2.40;;;;;;;19.33;57.98;102284.28;5136250;27;20035;-41
2022/07/16 08:45:04;;;;;;;7.17;1.97;;;;;;;19.31;57.12;102285.13;5136176;27;20023;-44
2022/07/16 08:47:32;;;;;;;9.13;2.08;;;;;;;19.06;55.82;102284.72;5135650;27;20104;-43
2022/07/16 08:50:12;;;;;;;6.15;1.92;;;;;;;18.79;58.41;102291.16;5136069;27;20065;-44
2022/07/16 08:52:43;;;;;;;8.32;2.42;;;;;;;18.79;55.84;102292.91;5136454;27;20027;-44
2022/07/16 08:55:09;;;;;;;6.50;1.98;;;;;;;19.13;55.35;102296.16;5135282;27;20023;-42
2022/07/16 08:57:37;;;;;;;9.73;2.25;;;;;;;19.52;54.85;102289.81;5136204;27;20019;-43
2022/07/16 09:00:07;;;;;;;6.80;2.28;;;;;;;19.97;55.18;102304.44;5135947;27;20026;-43
2022/07/16 09:02:33;;;;;;;8.65;2.22;;;;;;;20.18;53.44;102297.72;5135223;27;20477;-43
2022/07/16 09:04:59;;;;;;;9.30;2.40;;;;;;;20.33;52.73;102297.94;5136049;27;20031;-43
2022/07/16 09:07:24;;;;;;;6.95;2.00;;;;;;;20.46;53.69;102298.09;5135967;27;20034;-43
2022/07/16 09:09:50;;;;;;;7.28;2.13;;;;;;;20.40;52.97;102305.00;5134863;27;20055;-43
2022/07/16 09:12:33;;;;;;;6.57;1.75;;;;;;;20.25;53.85;102304.81;5135767;27;20027;-45
2022/07/16 09:14:59;;;;;;;8.20;2.00;;;;;;;19.60;52.24;102303.91;5135736;27;20113;-43
2022/07/16 09:17:24;;;;;;;9.23;2.08;;;;;;;19.54;55.44;102306.41;5134784;27;20055;-43
2022/07/16 09:19:49;;;;;;;8.15;1.98;;;;;;;19.53;54.34;102313.34;5135789;27;20501;-43
2022/07/16 09:22:15;;;;;;;9.82;1.85;;;;;;;19.68;53.49;102312.72;5134863;27;20459;-44
2022/07/16 09:24:41;;;;;;;8.45;2.00;;;;;;;19.91;53.31;102309.63;5135777;27;20027;-42
2022/07/16 09:27:19;;;;;;;7.47;2.00;;;;;;;20.29;55.98;102310.97;5135418;27;20068;-43
2022/07/16 09:29:49;;;;;;;7.72;2.20;;;;;;;20.65;51.54;102312.28;5134584;27;20625;-44
2022/07/16 09:32:34;;;;;;;6.70;2.00;;;;;;;21.05;53.00;102313.56;5135412;27;20030;-43
2022/07/16 09:35:02;;;;;;;5.22;2.60;;;;;;;21.41;48.59;102315.63;5135335;27;20098;-47
2022/07/16 09:38:07;;;;;;;6.30;1.77;;;;;;;21.69;50.35;102315.00;5134740;27;20027;-44
2022/07/16 09:40:39;;;;;;;6.13;1.67;;;;;;;21.72;48.92;102319.41;5135523;27;20027;-43
2022/07/16 09:43:11;;;;;;;6.78;1.63;;;;;;;21.27;48.65;102319.03;5135117;27;20030;-44
2022/07/16 09:45:39;;;;;;;10.88;1.77;;;;;;;21.36;49.67;102316.47;5134907;27;20067;-45
2022/07/16 09:48:18;;;;;;;7.82;1.85;;;;;;;21.70;51.04;102326.38;5134690;27;20037;-46
2022/07/16 09:50:44;;;;;;;4.82;1.65;;;;;;;22.04;50.78;102327.47;5134584;27;20115;-43
2022/07/16 09:53:13;;;;;;;6.50;1.92;;;;;;;21.70;48.01;102335.13;5134655;27;20054;-43
2022/07/16 09:56:04;;;;;;;8.13;1.77;;;;;;;21.29;50.39;102330.41;5135066;27;20046;-47
2022/07/16 09:58:31;;;;;;;6.43;1.38;;;;;;;20.71;49.87;102339.44;5134200;27;20590;-48
2022/07/16 10:00:57;;;;;;;5.90;1.83;;;;;;;20.40;50.09;102336.44;5134772;27;20018;-43
2022/07/16 10:03:23;;;;;;;8.48;2.08;;;;;;;20.98;50.85;102331.84;5134779;27;20019;-43
2022/07/16 10:05:48;;;;;;;6.18;1.80;;;;;;;21.28;49.77;102341.75;5134156;27;20554;-43
2022/07/16 10:08:14;;;;;;;5.75;1.70;;;;;;;21.60;46.43;102346.44;5134283;27;20438;-43
2022/07/16 10:10:40;;;;;;;5.72;1.63;;;;;;;21.78;45.20;102339.53;5134780;27;20072;-43
2022/07/16 10:13:07;;;;;;;7.22;1.67;;;;;;;22.06;46.64;102352.84;5133573;27;20420;-46
2022/07/16 10:15:33;;;;;;;;;;;;;;;22.18;47.64;102337.16;5135071;27;20031;-43
2022/07/16 10:17:58;;;;;;;7.03;1.55;;;;;;;22.43;42.88;102337.31;5134431;27;20266;-42
2022/07/16 10:20:23;;;;;;;7.18;1.50;;;;;;;22.67;45.32;102347.91;5133555;27;20027;-41
2022/07/16 10:22:51;;;;;;;6.53;1.50;;;;;;;22.70;42.55;102354.91;5134242;27;20015;-42
2022/07/16 10:25:22;;;;;;;6.38;1.80;;;;;;;23.23;42.77;102353.28;5134273;27;20030;-42
2022/07/16 10:27:48;;;;;;;9.50;1.77;;;;;;;24.16;39.04;102358.47;5133620;27;20042;-42
2022/07/16 10:30:32;;;;;;;10.25;1.95;;;;;;;23.87;41.49;102362.00;5134252;27;20035;-42
2022/07/16 10:33:00;;;;;;;4.03;1.75;;;;;;;23.63;40.03;102366.44;5133579;27;20072;-43
2022/07/16 10:35:47;;;;;;;4.47;1.42;;;;;;;24.90;38.01;102358.16;5134094;27;20034;-43
2022/07/16 10:38:23;;;;;;;5.20;1.55;;;;;;;25.01;37.23;102362.47;5133639;27;20039;-43
2022/07/16 10:41:07;;;;;;;5.93;1.50;;;;;;;24.20;39.87;102362.84;5133562;27;20102;-43
2022/07/16 10:43:33;;;;;;;5.20;1.55;;;;;;;23.31;38.06;102361.19;5134251;27;20023;-46
2022/07/16 10:46:07;;;;;;;8.57;1.60;;;;;;;22.79;40.87;102372.47;5134086;27;20068;-42
2022/07/16 10:48:38;;;;;;;8.38;1.60;;;;;;;23.14;40.48;102367.31;5133184;27;20138;-44
2022/07/16 10:51:15;;;;;;;7.05;1.95;;;;;;;24.28;37.84;102371.59;5133921;27;20067;-42
2022/07/16 10:53:56;;;;;;;8.75;1.90;;;;;;;25.90;37.34;102367.03;5133380;27;20130;-42
2022/07/16 10:56:37;;;;;;;4.50;1.58;;;;;;;26.35;35.79;102370.94;5133822;27;20055;-42
2022/07/16 10:59:08;;;;;;;8.63;1.45;;;;;;;25.94;35.94;102374.03;5133551;27;20023;-44
2022/07/16 11:01:38;;;;;;;6.25;1.58;;;;;;;26.57;35.68;102384.78;5133388;27;20145;-43
2022/07/16 11:04:04;;;;;;;5.20;1.98;;;;;;;26.81;34.23;102388.88;5133516;27;20489;-46
2022/07/16 11:06:30;;;;;;;5.10;1.95;;;;;;;26.04;34.43;102384.50;5133874;27;20498;-46
2022/07/16 11:08:57;;;;;;;5.05;1.55;;;;;;;25.44;35.57;102388.59;5132745;27;20054;-42
2022/07/16 11:11:22;;;;;;;6.50;1.52;;;;;;;26.12;34.90;102382.69;5133649;28;20258;-43
2022/07/16 11:13:48;;;;;;;6.05;1.50;;;;;;;26.73;33.91;102380.19;5133616;28;20019;-43
2022/07/16 11:16:14;;;;;;;5.78;1.70;;;;;;;27.34;34.40;102380.16;5132952;28;20046;-43
2022/07/16 11:18:40;;;;;;;5.20;1.50;;;;;;;27.99;32.02;102381.69;5133631;28;20455;-47
2022/07/16 11:21:09;;;;;;;7.63;1.63;;;;;;;28.16;30.10;102384.03;5133524;28;20048;-42
2022/07/16 11:23:50;;;;;;;7.68;1.50;;;;;;;28.06;32.35;102392.16;5132990;28;20031;-45
2022/07/16 11:26:17;;;;;;;4.80;1.80;;;;;;;26.68;31.58;102382.88;5133465;28;20019;-41